sensor_id;sensor_type;location;lat;lon;timestamp;temperature;humidity
8557;DHT22;4316;53.840;10.762;2023-04-24T00:01:39;13.10;99.90
8557;DHT22;4316;53.840;10.762;2023-04-24T00:04:06;13.10;99.90
8557;DHT22;4316;53.840;10.762;2023-04-24T00:06:32;13.20;99.90
8557;DHT22;4316;53.840;10.762;2023-04-24T00:09:01;13.10;99.90
8557;DHT22;4316;53.840;10.762;2023-04-24T00:11:27;13.20;99.90
8557;DHT22;4316;53.840;10.762;2023-04-24T00:13:53;13.20;99.90
8557;DHT22;4316;53.840;10.762;2023-04-24T00:16:19;13.30;99.90
8557;DHT22;4316;53.840;10.762;2023-04-24T00:18:44;13.20;99.90
8557;DHT22;4316;53.840;10.762;2023-04-24T00:21:10;13.30;99.90
8557;DHT22;4316;53.840;10.762;2023-04-24T00:23:36;13.20;99.90
8557;DHT22;4316;53.840;10.762;2023-04-24T00:26:02;13.20;99.90
8557;DHT22;4316;53.840;10.762;2023-04-24T00:28:27;13.30;99.90
8557;DHT22;4316;53.840;10.762;2023-04-24T00:30:53;13.30;99.90
8557;DHT22;4316;53.840;10.762;2023-04-24T00:33:19;13.30;99.90
8557;DHT22;4316;53.840;10.762;2023-04-24T00:35:45;13.30;99.90
8557;DHT22;4316;53.840;10.762;2023-04-24T00:38:10;13.30;99.90
8557;DHT22;4316;53.840;10.762;2023-04-24T00:40:36;13.20;99.90
8557;DHT22;4316;53.840;10.762;2023-04-24T00:43:02;13.20;99.90
8557;DHT22;4316;53.840;10.762;2023-04-24T00:45:28;13.10;99.90
8557;DHT22;4316;53.840;10.762;2023-04-24T00:47:57;13.00;99.90
8557;DHT22;4316;53.840;10.762;2023-04-24T00:50:23;13.00;99.90
8557;DHT22;4316;53.840;10.762;2023-04-24T00:52:50;12.90;99.90
8557;DHT22;4316;53.840;10.762;2023-04-24T00:55:16;12.90;99.90
8557;DHT22;4316;53.840;10.762;2023-04-24T00:57:44;12.80;99.90
8557;DHT22;4316;53.840;10.762;2023-04-24T01:00:11;12.80;99.90
8557;DHT22;4316;53.840;10.762;2023-04-24T01:02:41;12.80;99.90
8557;DHT22;4316;53.840;10.762;2023-04-24T01:05:15;12.80;99.90
8557;DHT22;4316;53.840;10.762;2023-04-24T01:07:45;12.80;99.90
8557;DHT22;4316;53.840;10.762;2023-04-24T01:10:14;12.80;99.90
8557;DHT22;4316;53.840;10.762;2023-04-24T01:12:39;12.80;99.90
8557;DHT22;4316;53.840;10.762;2023-04-24T01:15:06;12.70;99.90
8557;DHT22;4316;53.840;10.762;2023-04-24T01:17:32;12.50;99.90
8557;DHT22;4316;53.840;10.762;2023-04-24T01:19:59;12.40;99.90
8557;DHT22;4316;53.840;10.762;2023-04-24T01:22:25;12.30;99.90
8557;DHT22;4316;53.840;10.762;2023-04-24T01:24:52;12.30;99.90
8557;DHT22;4316;53.840;10.762;2023-04-24T01:27:19;12.30;99.90
8557;DHT22;4316;53.840;10.762;2023-04-24T01:29:45;12.20;99.90
8557;DHT22;4316;53.840;10.762;2023-04-24T01:32:11;12.20;99.90
8557;DHT22;4316;53.840;10.762;2023-04-24T01:34:37;12.20;99.90
8557;DHT22;4316;53.840;10.762;2023-04-24T01:37:02;12.00;99.90
8557;DHT22;4316;53.840;10.762;2023-04-24T01:39:28;11.90;99.90
8557;DHT22;4316;53.840;10.762;2023-04-24T01:41:55;11.90;99.90
8557;DHT22;4316;53.840;10.762;2023-04-24T01:44:21;11.80;99.90
8557;DHT22;4316;53.840;10.762;2023-04-24T01:46:47;11.80;99.90
8557;DHT22;4316;53.840;10.762;2023-04-24T01:49:13;11.70;99.90
8557;DHT22;4316;53.840;10.762;2023-04-24T01:51:38;11.70;99.90
8557;DHT22;4316;53.840;10.762;2023-04-24T01:54:04;11.70;99.90
8557;DHT22;4316;53.840;10.762;2023-04-24T01:56:33;11.60;99.90
8557;DHT22;4316;53.840;10.762;2023-04-24T01:58:59;11.70;99.90
8557;DHT22;4316;53.840;10.762;2023-04-24T02:01:26;11.90;99.90
8557;DHT22;4316;53.840;10.762;2023-04-24T02:03:51;11.80;99.90
8557;DHT22;4316;53.840;10.762;2023-04-24T02:06:17;11.80;99.90
8557;DHT22;4316;53.840;10.762;2023-04-24T02:08:42;11.80;99.90
8557;DHT22;4316;53.840;10.762;2023-04-24T02:11:11;11.70;99.90
8557;DHT22;4316;53.840;10.762;2023-04-24T02:13:36;11.70;99.90
8557;DHT22;4316;53.840;10.762;2023-04-24T02:16:02;11.70;99.90
8557;DHT22;4316;53.840;10.762;2023-04-24T02:18:29;11.70;99.90
8557;DHT22;4316;53.840;10.762;2023-04-24T02:20:56;11.60;99.90
8557;DHT22;4316;53.840;10.762;2023-04-24T02:23:21;11.60;99.90
8557;DHT22;4316;53.840;10.762;2023-04-24T02:25:47;11.60;99.90
8557;DHT22;4316;53.840;10.762;2023-04-24T02:28:13;11.70;99.90
8557;DHT22;4316;53.840;10.762;2023-04-24T02:30:38;11.60;99.90
8557;DHT22;4316;53.840;10.762;2023-04-24T02:33:04;11.60;99.90
8557;DHT22;4316;53.840;10.762;2023-04-24T02:35:29;11.60;99.90
8557;DHT22;4316;53.840;10.762;2023-04-24T02:37:55;11.60;99.90
8557;DHT22;4316;53.840;10.762;2023-04-24T02:40:21;11.60;99.90
8557;DHT22;4316;53.840;10.762;2023-04-24T02:42:46;11.60;99.90
8557;DHT22;4316;53.840;10.762;2023-04-24T02:45:12;11.70;99.90
8557;DHT22;4316;53.840;10.762;2023-04-24T02:47:38;11.70;99.90
8557;DHT22;4316;53.840;10.762;2023-04-24T02:50:04;11.70;99.90
8557;DHT22;4316;53.840;10.762;2023-04-24T02:52:30;11.70;99.90
8557;DHT22;4316;53.840;10.762;2023-04-24T02:54:55;11.60;99.90
8557;DHT22;4316;53.840;10.762;2023-04-24T02:57:21;11.60;99.90
8557;DHT22;4316;53.840;10.762;2023-04-24T02:59:46;11.60;99.90
8557;DHT22;4316;53.840;10.762;2023-04-24T03:02:12;11.60;99.90
8557;DHT22;4316;53.840;10.762;2023-04-24T03:04:38;11.60;99.90
8557;DHT22;4316;53.840;10.762;2023-04-24T03:07:05;11.70;99.90
8557;DHT22;4316;53.840;10.762;2023-04-24T03:09:31;11.50;99.90
8557;DHT22;4316;53.840;10.762;2023-04-24T03:11:57;11.40;99.90
8557;DHT22;4316;53.840;10.762;2023-04-24T03:14:24;11.40;99.90
8557;DHT22;4316;53.840;10.762;2023-04-24T03:16:49;11.40;99.90
8557;DHT22;4316;53.840;10.762;2023-04-24T03:19:15;11.40;99.90
8557;DHT22;4316;53.840;10.762;2023-04-24T03:21:52;11.30;99.90
8557;DHT22;4316;53.840;10.762;2023-04-24T03:24:18;11.30;99.90
8557;DHT22;4316;53.840;10.762;2023-04-24T03:26:43;11.20;99.90
8557;DHT22;4316;53.840;10.762;2023-04-24T03:29:28;11.30;99.90
8557;DHT22;4316;53.840;10.762;2023-04-24T03:31:54;11.40;99.90
8557;DHT22;4316;53.840;10.762;2023-04-24T03:34:19;11.40;99.90
8557;DHT22;4316;53.840;10.762;2023-04-24T03:36:45;11.40;99.90
8557;DHT22;4316;53.840;10.762;2023-04-24T03:39:13;11.50;99.90
8557;DHT22;4316;53.840;10.762;2023-04-24T03:41:45;11.50;99.90
8557;DHT22;4316;53.840;10.762;2023-04-24T03:44:17;11.50;99.90
8557;DHT22;4316;53.840;10.762;2023-04-24T03:46:43;11.50;99.90
8557;DHT22;4316;53.840;10.762;2023-04-24T03:49:09;11.60;99.90
8557;DHT22;4316;53.840;10.762;2023-04-24T03:51:38;11.60;99.90
8557;DHT22;4316;53.840;10.762;2023-04-24T03:54:20;11.60;99.90
8557;DHT22;4316;53.840;10.762;2023-04-24T03:56:46;11.60;99.90
8557;DHT22;4316;53.840;10.762;2023-04-24T03:59:12;11.60;99.90
8557;DHT22;4316;53.840;10.762;2023-04-24T04:01:39;11.60;99.90
8557;DHT22;4316;53.840;10.762;2023-04-24T04:04:11;11.70;99.90
8557;DHT22;4316;53.840;10.762;2023-04-24T04:06:38;11.60;99.90
8557;DHT22;4316;53.840;10.762;2023-04-24T04:09:05;11.60;99.90
8557;DHT22;4316;53.840;10.762;2023-04-24T04:11:30;11.60;99.90
8557;DHT22;4316;53.840;10.762;2023-04-24T04:13:56;11.60;99.90
8557;DHT22;4316;53.840;10.762;2023-04-24T04:16:22;11.60;99.90
8557;DHT22;4316;53.840;10.762;2023-04-24T04:18:51;11.60;99.90
8557;DHT22;4316;53.840;10.762;2023-04-24T04:21:16;11.50;99.90
8557;DHT22;4316;53.840;10.762;2023-04-24T04:23:43;11.50;99.90
8557;DHT22;4316;53.840;10.762;2023-04-24T04:26:22;11.50;99.90
8557;DHT22;4316;53.840;10.762;2023-04-24T04:29:01;11.50;99.90
8557;DHT22;4316;53.840;10.762;2023-04-24T04:31:29;11.50;99.90
8557;DHT22;4316;53.840;10.762;2023-04-24T04:33:58;11.40;99.90
8557;DHT22;4316;53.840;10.762;2023-04-24T04:36:24;11.30;99.90
8557;DHT22;4316;53.840;10.762;2023-04-24T04:38:56;11.30;99.90
8557;DHT22;4316;53.840;10.762;2023-04-24T04:41:40;11.40;99.90
8557;DHT22;4316;53.840;10.762;2023-04-24T04:44:08;11.40;99.90
8557;DHT22;4316;53.840;10.762;2023-04-24T04:46:34;11.40;99.90
8557;DHT22;4316;53.840;10.762;2023-04-24T04:49:10;11.50;99.90
8557;DHT22;4316;53.840;10.762;2023-04-24T04:51:36;11.40;99.90
8557;DHT22;4316;53.840;10.762;2023-04-24T04:54:02;11.40;99.90
8557;DHT22;4316;53.840;10.762;2023-04-24T04:56:28;11.30;99.90
8557;DHT22;4316;53.840;10.762;2023-04-24T04:58:55;11.30;99.90
8557;DHT22;4316;53.840;10.762;2023-04-24T05:01:20;11.40;99.90
8557;DHT22;4316;53.840;10.762;2023-04-24T05:03:49;11.40;99.90
8557;DHT22;4316;53.840;10.762;2023-04-24T05:06:16;11.40;99.90
8557;DHT22;4316;53.840;10.762;2023-04-24T05:08:43;11.40;99.90
8557;DHT22;4316;53.840;10.762;2023-04-24T05:11:15;11.40;99.90
8557;DHT22;4316;53.840;10.762;2023-04-24T05:13:41;11.40;99.90
8557;DHT22;4316;53.840;10.762;2023-04-24T05:16:17;11.40;99.90
8557;DHT22;4316;53.840;10.762;2023-04-24T05:18:43;11.50;99.90
8557;DHT22;4316;53.840;10.762;2023-04-24T05:21:12;11.60;99.90
8557;DHT22;4316;53.840;10.762;2023-04-24T05:23:40;11.70;99.90
8557;DHT22;4316;53.840;10.762;2023-04-24T05:26:06;11.80;99.90
8557;DHT22;4316;53.840;10.762;2023-04-24T05:28:32;11.90;99.90
8557;DHT22;4316;53.840;10.762;2023-04-24T05:31:05;11.90;99.90
8557;DHT22;4316;53.840;10.762;2023-04-24T05:33:31;12.00;99.90
8557;DHT22;4316;53.840;10.762;2023-04-24T05:35:57;12.00;99.90
8557;DHT22;4316;53.840;10.762;2023-04-24T05:38:23;12.10;99.90
8557;DHT22;4316;53.840;10.762;2023-04-24T05:40:49;12.20;99.90
8557;DHT22;4316;53.840;10.762;2023-04-24T05:43:15;12.30;99.90
8557;DHT22;4316;53.840;10.762;2023-04-24T05:45:40;12.30;99.90
8557;DHT22;4316;53.840;10.762;2023-04-24T05:48:06;12.40;99.90
8557;DHT22;4316;53.840;10.762;2023-04-24T05:50:32;12.40;99.90
8557;DHT22;4316;53.840;10.762;2023-04-24T05:52:58;12.50;99.90
8557;DHT22;4316;53.840;10.762;2023-04-24T05:55:28;12.60;99.90
8557;DHT22;4316;53.840;10.762;2023-04-24T05:57:53;12.50;99.90
8557;DHT22;4316;53.840;10.762;2023-04-24T06:00:20;12.50;99.90
8557;DHT22;4316;53.840;10.762;2023-04-24T06:02:53;12.40;99.90
8557;DHT22;4316;53.840;10.762;2023-04-24T06:05:20;12.50;99.90
8557;DHT22;4316;53.840;10.762;2023-04-24T06:07:45;12.60;99.90
8557;DHT22;4316;53.840;10.762;2023-04-24T06:10:11;12.80;99.90
8557;DHT22;4316;53.840;10.762;2023-04-24T06:12:41;13.00;99.90
8557;DHT22;4316;53.840;10.762;2023-04-24T06:15:13;13.10;99.90
8557;DHT22;4316;53.840;10.762;2023-04-24T06:18:02;13.20;99.90
8557;DHT22;4316;53.840;10.762;2023-04-24T06:20:28;13.40;99.90
8557;DHT22;4316;53.840;10.762;2023-04-24T06:22:53;13.60;99.90
8557;DHT22;4316;53.840;10.762;2023-04-24T06:25:19;13.80;99.90
8557;DHT22;4316;53.840;10.762;2023-04-24T06:27:45;13.80;99.90
8557;DHT22;4316;53.840;10.762;2023-04-24T06:30:11;13.80;99.90
8557;DHT22;4316;53.840;10.762;2023-04-24T06:32:36;13.80;99.90
8557;DHT22;4316;53.840;10.762;2023-04-24T06:35:02;13.90;99.90
8557;DHT22;4316;53.840;10.762;2023-04-24T06:37:28;14.20;99.90
8557;DHT22;4316;53.840;10.762;2023-04-24T06:39:54;14.20;99.90
8557;DHT22;4316;53.840;10.762;2023-04-24T06:42:20;14.30;99.90
8557;DHT22;4316;53.840;10.762;2023-04-24T06:44:50;14.50;99.90
8557;DHT22;4316;53.840;10.762;2023-04-24T06:47:15;14.50;99.90
8557;DHT22;4316;53.840;10.762;2023-04-24T06:49:41;14.70;99.90
8557;DHT22;4316;53.840;10.762;2023-04-24T06:52:07;14.80;99.90
8557;DHT22;4316;53.840;10.762;2023-04-24T06:54:33;14.90;99.90
8557;DHT22;4316;53.840;10.762;2023-04-24T06:56:59;14.80;99.90
8557;DHT22;4316;53.840;10.762;2023-04-24T06:59:29;14.90;99.90
8557;DHT22;4316;53.840;10.762;2023-04-24T07:01:55;15.20;99.90
8557;DHT22;4316;53.840;10.762;2023-04-24T07:04:20;15.10;99.90
8557;DHT22;4316;53.840;10.762;2023-04-24T07:06:47;15.10;99.90
8557;DHT22;4316;53.840;10.762;2023-04-24T07:09:13;15.40;99.90
8557;DHT22;4316;53.840;10.762;2023-04-24T07:11:45;15.60;99.90
8557;DHT22;4316;53.840;10.762;2023-04-24T07:14:11;15.70;99.90
8557;DHT22;4316;53.840;10.762;2023-04-24T07:16:36;15.90;99.90
8557;DHT22;4316;53.840;10.762;2023-04-24T07:19:02;15.70;99.90
8557;DHT22;4316;53.840;10.762;2023-04-24T07:21:27;15.80;99.90
8557;DHT22;4316;53.840;10.762;2023-04-24T07:23:53;15.70;99.90
8557;DHT22;4316;53.840;10.762;2023-04-24T07:26:19;15.70;99.90
8557;DHT22;4316;53.840;10.762;2023-04-24T07:28:46;15.70;99.90
8557;DHT22;4316;53.840;10.762;2023-04-24T07:31:11;16.00;99.90
8557;DHT22;4316;53.840;10.762;2023-04-24T07:33:37;16.30;99.90
8557;DHT22;4316;53.840;10.762;2023-04-24T07:36:03;16.20;99.90
8557;DHT22;4316;53.840;10.762;2023-04-24T07:38:30;16.10;99.90
8557;DHT22;4316;53.840;10.762;2023-04-24T07:40:55;16.10;99.90
8557;DHT22;4316;53.840;10.762;2023-04-24T07:43:21;16.30;99.90
8557;DHT22;4316;53.840;10.762;2023-04-24T07:45:47;16.40;99.90
8557;DHT22;4316;53.840;10.762;2023-04-24T07:48:13;16.40;99.90
8557;DHT22;4316;53.840;10.762;2023-04-24T07:50:41;16.60;99.90
8557;DHT22;4316;53.840;10.762;2023-04-24T07:53:07;16.70;99.90
8557;DHT22;4316;53.840;10.762;2023-04-24T07:55:33;16.70;99.90
8557;DHT22;4316;53.840;10.762;2023-04-24T07:57:58;16.70;99.90
8557;DHT22;4316;53.840;10.762;2023-04-24T08:00:24;17.00;99.90
8557;DHT22;4316;53.840;10.762;2023-04-24T08:02:49;16.80;99.90
8557;DHT22;4316;53.840;10.762;2023-04-24T08:05:15;16.60;99.90
8557;DHT22;4316;53.840;10.762;2023-04-24T08:07:41;16.80;99.90
8557;DHT22;4316;53.840;10.762;2023-04-24T08:10:09;16.40;99.90
8557;DHT22;4316;53.840;10.762;2023-04-24T08:12:36;16.40;99.90
8557;DHT22;4316;53.840;10.762;2023-04-24T08:15:02;16.70;99.90
8557;DHT22;4316;53.840;10.762;2023-04-24T08:17:27;16.50;99.90
8557;DHT22;4316;53.840;10.762;2023-04-24T08:19:53;16.20;99.90
8557;DHT22;4316;53.840;10.762;2023-04-24T08:22:29;16.50;99.90
8557;DHT22;4316;53.840;10.762;2023-04-24T08:24:55;16.80;99.90
8557;DHT22;4316;53.840;10.762;2023-04-24T08:27:22;17.10;99.90
8557;DHT22;4316;53.840;10.762;2023-04-24T08:29:49;17.30;99.90
8557;DHT22;4316;53.840;10.762;2023-04-24T08:32:15;17.40;99.90
8557;DHT22;4316;53.840;10.762;2023-04-24T08:34:40;17.30;99.90
8557;DHT22;4316;53.840;10.762;2023-04-24T08:37:06;17.20;99.90
8557;DHT22;4316;53.840;10.762;2023-04-24T08:39:31;17.40;99.90
8557;DHT22;4316;53.840;10.762;2023-04-24T08:41:57;17.30;99.90
8557;DHT22;4316;53.840;10.762;2023-04-24T08:44:31;17.60;99.90
8557;DHT22;4316;53.840;10.762;2023-04-24T08:46:57;17.50;99.90
8557;DHT22;4316;53.840;10.762;2023-04-24T08:49:24;17.70;99.90
8557;DHT22;4316;53.840;10.762;2023-04-24T08:51:52;17.90;99.90
8557;DHT22;4316;53.840;10.762;2023-04-24T08:54:18;18.10;99.90
8557;DHT22;4316;53.840;10.762;2023-04-24T08:56:44;18.00;99.90
8557;DHT22;4316;53.840;10.762;2023-04-24T08:59:10;17.90;99.90
8557;DHT22;4316;53.840;10.762;2023-04-24T09:01:37;17.90;99.90
8557;DHT22;4316;53.840;10.762;2023-04-24T09:04:07;18.00;99.90
8557;DHT22;4316;53.840;10.762;2023-04-24T09:06:34;17.80;99.90
8557;DHT22;4316;53.840;10.762;2023-04-24T09:09:01;18.10;99.90
8557;DHT22;4316;53.840;10.762;2023-04-24T09:11:27;18.40;99.90
8557;DHT22;4316;53.840;10.762;2023-04-24T09:13:53;18.60;99.90
8557;DHT22;4316;53.840;10.762;2023-04-24T09:16:20;18.50;99.90
8557;DHT22;4316;53.840;10.762;2023-04-24T09:18:45;18.60;99.90
8557;DHT22;4316;53.840;10.762;2023-04-24T09:21:11;18.50;99.90
8557;DHT22;4316;53.840;10.762;2023-04-24T09:23:37;18.00;99.90
8557;DHT22;4316;53.840;10.762;2023-04-24T09:26:04;17.50;99.90
8557;DHT22;4316;53.840;10.762;2023-04-24T09:28:34;17.70;99.90
8557;DHT22;4316;53.840;10.762;2023-04-24T09:31:14;18.10;99.90
8557;DHT22;4316;53.840;10.762;2023-04-24T09:34:03;18.40;99.90
8557;DHT22;4316;53.840;10.762;2023-04-24T09:36:51;18.90;99.90
8557;DHT22;4316;53.840;10.762;2023-04-24T09:39:18;19.10;99.90
8557;DHT22;4316;53.840;10.762;2023-04-24T09:42:03;19.10;99.90
8557;DHT22;4316;53.840;10.762;2023-04-24T09:44:29;19.40;99.90
8557;DHT22;4316;53.840;10.762;2023-04-24T09:46:59;19.20;98.90
8557;DHT22;4316;53.840;10.762;2023-04-24T09:51:52;18.50;99.90
8557;DHT22;4316;53.840;10.762;2023-04-24T09:54:19;18.30;99.90
8557;DHT22;4316;53.840;10.762;2023-04-24T09:56:48;17.80;99.90
8557;DHT22;4316;53.840;10.762;2023-04-24T09:59:15;17.40;99.90
8557;DHT22;4316;53.840;10.762;2023-04-24T10:01:42;17.20;99.90
8557;DHT22;4316;53.840;10.762;2023-04-24T10:04:21;17.20;99.90
8557;DHT22;4316;53.840;10.762;2023-04-24T10:06:49;17.70;99.90
8557;DHT22;4316;53.840;10.762;2023-04-24T10:09:16;18.10;99.90
8557;DHT22;4316;53.840;10.762;2023-04-24T10:11:44;17.90;99.90
8557;DHT22;4316;53.840;10.762;2023-04-24T10:14:16;17.70;99.90
8557;DHT22;4316;53.840;10.762;2023-04-24T10:16:43;17.40;99.90
8557;DHT22;4316;53.840;10.762;2023-04-24T10:19:09;17.10;99.90
8557;DHT22;4316;53.840;10.762;2023-04-24T10:21:36;16.90;99.90
8557;DHT22;4316;53.840;10.762;2023-04-24T10:24:10;17.00;99.90
8557;DHT22;4316;53.840;10.762;2023-04-24T10:26:36;16.80;99.90
8557;DHT22;4316;53.840;10.762;2023-04-24T10:29:05;17.00;99.90
8557;DHT22;4316;53.840;10.762;2023-04-24T10:31:36;17.10;99.90
8557;DHT22;4316;53.840;10.762;2023-04-24T10:34:02;17.00;99.90
8557;DHT22;4316;53.840;10.762;2023-04-24T10:36:29;16.60;99.90
8557;DHT22;4316;53.840;10.762;2023-04-24T10:38:58;16.40;99.90
8557;DHT22;4316;53.840;10.762;2023-04-24T10:41:26;16.30;99.90
8557;DHT22;4316;53.840;10.762;2023-04-24T10:44:11;16.20;99.90
8557;DHT22;4316;53.840;10.762;2023-04-24T10:46:38;15.90;99.90
8557;DHT22;4316;53.840;10.762;2023-04-24T10:49:05;16.00;99.90
8557;DHT22;4316;53.840;10.762;2023-04-24T10:51:53;16.10;99.90
8557;DHT22;4316;53.840;10.762;2023-04-24T10:54:27;16.20;99.90
8557;DHT22;4316;53.840;10.762;2023-04-24T10:57:25;16.20;99.90
8557;DHT22;4316;53.840;10.762;2023-04-24T10:59:39;16.40;99.90
8557;DHT22;4316;53.840;10.762;2023-04-24T11:02:07;16.60;99.90
8557;DHT22;4316;53.840;10.762;2023-04-24T11:04:33;16.70;99.90
8557;DHT22;4316;53.840;10.762;2023-04-24T11:07:01;16.80;99.90
8557;DHT22;4316;53.840;10.762;2023-04-24T11:09:28;17.10;99.90
8557;DHT22;4316;53.840;10.762;2023-04-24T11:12:06;17.10;99.90
8557;DHT22;4316;53.840;10.762;2023-04-24T11:17:36;16.50;99.90
8557;DHT22;4316;53.840;10.762;2023-04-24T11:20:03;16.50;99.90
8557;DHT22;4316;53.840;10.762;2023-04-24T11:22:33;16.70;99.90
8557;DHT22;4316;53.840;10.762;2023-04-24T11:25:00;17.10;99.90
8557;DHT22;4316;53.840;10.762;2023-04-24T11:27:31;17.30;99.90
8557;DHT22;4316;53.840;10.762;2023-04-24T11:32:30;17.90;99.90
8557;DHT22;4316;53.840;10.762;2023-04-24T11:37:28;18.20;98.70
8557;DHT22;4316;53.840;10.762;2023-04-24T11:39:57;18.20;98.10
8557;DHT22;4316;53.840;10.762;2023-04-24T11:42:23;18.00;98.30
8557;DHT22;4316;53.840;10.762;2023-04-24T11:44:52;18.10;98.60
8557;DHT22;4316;53.840;10.762;2023-04-24T11:47:18;18.30;98.40
8557;DHT22;4316;53.840;10.762;2023-04-24T11:49:43;18.20;98.90
8557;DHT22;4316;53.840;10.762;2023-04-24T11:52:09;18.00;99.00
8557;DHT22;4316;53.840;10.762;2023-04-24T11:54:36;18.10;99.90
8557;DHT22;4316;53.840;10.762;2023-04-24T11:57:04;18.40;99.80
8557;DHT22;4316;53.840;10.762;2023-04-24T11:59:35;18.30;99.90
8557;DHT22;4316;53.840;10.762;2023-04-24T12:02:01;18.10;99.90
8557;DHT22;4316;53.840;10.762;2023-04-24T12:04:26;17.80;99.90
8557;DHT22;4316;53.840;10.762;2023-04-24T12:07:02;17.60;99.90
8557;DHT22;4316;53.840;10.762;2023-04-24T12:09:28;17.40;99.90
8557;DHT22;4316;53.840;10.762;2023-04-24T12:11:55;17.40;99.90
8557;DHT22;4316;53.840;10.762;2023-04-24T12:14:24;17.70;99.90
8557;DHT22;4316;53.840;10.762;2023-04-24T12:16:52;18.00;99.90
8557;DHT22;4316;53.840;10.762;2023-04-24T12:19:20;18.10;99.90
8557;DHT22;4316;53.840;10.762;2023-04-24T12:21:59;18.40;99.90
8557;DHT22;4316;53.840;10.762;2023-04-24T12:24:25;18.50;99.50
8557;DHT22;4316;53.840;10.762;2023-04-24T12:26:50;18.30;99.70
8557;DHT22;4316;53.840;10.762;2023-04-24T12:29:20;17.80;99.20
8557;DHT22;4316;53.840;10.762;2023-04-24T12:31:46;17.80;99.90
8557;DHT22;4316;53.840;10.762;2023-04-24T12:34:19;17.70;99.90
8557;DHT22;4316;53.840;10.762;2023-04-24T12:36:46;17.60;99.90
8557;DHT22;4316;53.840;10.762;2023-04-24T12:39:18;17.50;99.90
8557;DHT22;4316;53.840;10.762;2023-04-24T12:42:11;17.30;99.90
8557;DHT22;4316;53.840;10.762;2023-04-24T12:44:37;17.20;99.90
8557;DHT22;4316;53.840;10.762;2023-04-24T12:47:03;16.90;99.90
8557;DHT22;4316;53.840;10.762;2023-04-24T12:49:32;16.80;99.90
8557;DHT22;4316;53.840;10.762;2023-04-24T12:51:57;16.80;99.90
8557;DHT22;4316;53.840;10.762;2023-04-24T12:54:23;16.50;99.90
8557;DHT22;4316;53.840;10.762;2023-04-24T12:56:49;16.50;99.90
8557;DHT22;4316;53.840;10.762;2023-04-24T12:59:14;16.60;99.90
8557;DHT22;4316;53.840;10.762;2023-04-24T13:01:41;16.60;99.90
8557;DHT22;4316;53.840;10.762;2023-04-24T13:04:06;16.60;99.90
8557;DHT22;4316;53.840;10.762;2023-04-24T13:06:32;16.60;99.90
8557;DHT22;4316;53.840;10.762;2023-04-24T13:08:58;16.50;99.90
8557;DHT22;4316;53.840;10.762;2023-04-24T13:11:24;16.40;99.90
8557;DHT22;4316;53.840;10.762;2023-04-24T13:13:50;16.70;99.90
8557;DHT22;4316;53.840;10.762;2023-04-24T13:16:15;16.80;99.80
8557;DHT22;4316;53.840;10.762;2023-04-24T13:18:41;16.70;99.50
8557;DHT22;4316;53.840;10.762;2023-04-24T13:21:07;16.60;99.90
8557;DHT22;4316;53.840;10.762;2023-04-24T13:23:32;16.90;99.90
8557;DHT22;4316;53.840;10.762;2023-04-24T13:25:58;16.90;99.90
8557;DHT22;4316;53.840;10.762;2023-04-24T13:28:27;16.80;99.80
8557;DHT22;4316;53.840;10.762;2023-04-24T13:30:53;16.80;99.80
8557;DHT22;4316;53.840;10.762;2023-04-24T13:33:18;16.80;99.50
8557;DHT22;4316;53.840;10.762;2023-04-24T13:35:44;16.60;99.60
8557;DHT22;4316;53.840;10.762;2023-04-24T13:38:10;16.50;99.90
8557;DHT22;4316;53.840;10.762;2023-04-24T13:40:36;16.40;99.90
8557;DHT22;4316;53.840;10.762;2023-04-24T13:43:02;16.40;99.90
8557;DHT22;4316;53.840;10.762;2023-04-24T13:45:28;16.30;99.90
8557;DHT22;4316;53.840;10.762;2023-04-24T13:47:53;16.30;99.90
8557;DHT22;4316;53.840;10.762;2023-04-24T13:50:20;16.30;99.90
8557;DHT22;4316;53.840;10.762;2023-04-24T13:52:46;16.40;99.90
8557;DHT22;4316;53.840;10.762;2023-04-24T13:55:11;16.30;99.90
8557;DHT22;4316;53.840;10.762;2023-04-24T13:57:37;16.20;99.90
8557;DHT22;4316;53.840;10.762;2023-04-24T14:00:03;16.10;99.80
8557;DHT22;4316;53.840;10.762;2023-04-24T14:02:32;16.00;99.70
8557;DHT22;4316;53.840;10.762;2023-04-24T14:04:58;15.80;99.90
8557;DHT22;4316;53.840;10.762;2023-04-24T14:07:23;15.70;99.90
8557;DHT22;4316;53.840;10.762;2023-04-24T14:09:49;15.60;99.90
8557;DHT22;4316;53.840;10.762;2023-04-24T14:12:15;15.60;99.90
8557;DHT22;4316;53.840;10.762;2023-04-24T14:14:43;15.50;99.90
8557;DHT22;4316;53.840;10.762;2023-04-24T14:17:09;15.40;99.90
8557;DHT22;4316;53.840;10.762;2023-04-24T14:19:35;15.30;99.90
8557;DHT22;4316;53.840;10.762;2023-04-24T14:22:01;15.20;99.90
8557;DHT22;4316;53.840;10.762;2023-04-24T14:24:26;15.10;99.90
8557;DHT22;4316;53.840;10.762;2023-04-24T14:26:52;15.10;99.90
8557;DHT22;4316;53.840;10.762;2023-04-24T14:29:17;15.10;99.90
8557;DHT22;4316;53.840;10.762;2023-04-24T14:31:44;14.90;99.90
8557;DHT22;4316;53.840;10.762;2023-04-24T14:34:10;14.80;99.90
8557;DHT22;4316;53.840;10.762;2023-04-24T14:36:36;14.70;99.90
8557;DHT22;4316;53.840;10.762;2023-04-24T14:39:02;14.70;99.90
8557;DHT22;4316;53.840;10.762;2023-04-24T14:41:32;14.60;99.90
8557;DHT22;4316;53.840;10.762;2023-04-24T14:44:01;14.70;99.90
8557;DHT22;4316;53.840;10.762;2023-04-24T14:46:28;14.90;99.90
8557;DHT22;4316;53.840;10.762;2023-04-24T14:48:56;14.90;99.90
8557;DHT22;4316;53.840;10.762;2023-04-24T14:51:21;15.00;99.90
8557;DHT22;4316;53.840;10.762;2023-04-24T14:53:47;15.00;99.90
8557;DHT22;4316;53.840;10.762;2023-04-24T14:56:13;14.90;99.90
8557;DHT22;4316;53.840;10.762;2023-04-24T14:58:39;14.90;99.90
8557;DHT22;4316;53.840;10.762;2023-04-24T15:01:05;14.90;99.90
8557;DHT22;4316;53.840;10.762;2023-04-24T15:03:30;15.00;99.90
8557;DHT22;4316;53.840;10.762;2023-04-24T15:05:56;15.10;99.90
8557;DHT22;4316;53.840;10.762;2023-04-24T15:08:22;15.20;99.90
8557;DHT22;4316;53.840;10.762;2023-04-24T15:10:48;15.10;99.90
8557;DHT22;4316;53.840;10.762;2023-04-24T15:13:14;15.10;99.90
8557;DHT22;4316;53.840;10.762;2023-04-24T15:15:39;15.20;99.90
8557;DHT22;4316;53.840;10.762;2023-04-24T15:18:05;15.20;99.90
8557;DHT22;4316;53.840;10.762;2023-04-24T15:20:32;15.20;99.90
8557;DHT22;4316;53.840;10.762;2023-04-24T15:22:57;15.00;99.90
8557;DHT22;4316;53.840;10.762;2023-04-24T15:25:25;15.00;99.90
8557;DHT22;4316;53.840;10.762;2023-04-24T15:27:50;15.10;99.90
8557;DHT22;4316;53.840;10.762;2023-04-24T15:30:16;15.10;99.90
8557;DHT22;4316;53.840;10.762;2023-04-24T15:32:42;15.20;99.90
8557;DHT22;4316;53.840;10.762;2023-04-24T15:35:07;15.20;99.90
8557;DHT22;4316;53.840;10.762;2023-04-24T15:37:33;15.00;99.90
8557;DHT22;4316;53.840;10.762;2023-04-24T15:39:59;15.00;99.90
8557;DHT22;4316;53.840;10.762;2023-04-24T15:42:25;14.90;99.90
8557;DHT22;4316;53.840;10.762;2023-04-24T15:44:51;14.80;99.90
8557;DHT22;4316;53.840;10.762;2023-04-24T15:47:17;14.80;99.90
8557;DHT22;4316;53.840;10.762;2023-04-24T15:49:42;14.80;99.90
8557;DHT22;4316;53.840;10.762;2023-04-24T15:52:08;14.70;99.90
8557;DHT22;4316;53.840;10.762;2023-04-24T15:54:35;14.70;99.90
8557;DHT22;4316;53.840;10.762;2023-04-24T15:57:00;14.80;99.90